NRT457 KIAH-KELP
Flight info
| Callsign | NRT457 |
|---|---|
| Flight time | 1h 42m |
| Altitude | 34000 |
| Route | PITZZ5 CRGER TXSAS BEAHR3 |
| Aircraft | B738/M-SDE2E3FGHIRWXY/LB1 |
Departure
| Time | 2026-04-24 00:19 |
|---|---|
| Airport | George Bush Intercontinental Airport (KIAH) |
Arrival
| Time | 2026-04-24 02:02 |
|---|---|
| Airport | El Paso International Airport (KELP) |
| Time | Latitude | Longitude | Altitude | Speed | Heading |
|---|---|---|---|---|---|
| 2026-04-23 23:43 | 29.98833 | -95.33549 | 101 ft | 0 kts | 179° |
| 2026-04-24 00:02 | 29.98837 | -95.33549 | 101 ft | 2 kts | 180° |
| 2026-04-24 00:03 | 29.98852 | -95.33547 | 101 ft | 2 kts | 195° |
| 2026-04-24 00:03 | 29.98866 | -95.33542 | 101 ft | 2 kts | 205° |
| 2026-04-24 00:03 | 29.98879 | -95.33534 | 101 ft | 2 kts | 212° |
| 2026-04-24 00:03 | 29.98892 | -95.33524 | 101 ft | 2 kts | 210° |
| 2026-04-24 00:04 | 29.98906 | -95.33516 | 101 ft | 2 kts | 215° |
| 2026-04-24 00:04 | 29.98916 | -95.33504 | 101 ft | 2 kts | 234° |
| 2026-04-24 00:04 | 29.98923 | -95.33488 | 101 ft | 2 kts | 251° |
| 2026-04-24 00:04 | 29.98926 | -95.33472 | 101 ft | 2 kts | 267° |
| 2026-04-24 00:05 | 29.98926 | -95.33454 | 101 ft | 2 kts | 271° |
| 2026-04-24 00:05 | 29.98926 | -95.33442 | 101 ft | 0 kts | 269° |
| 2026-04-24 00:14 | 29.98925 | -95.33490 | 101 ft | 10 kts | 269° |
| 2026-04-24 00:14 | 29.98923 | -95.33581 | 101 ft | 13 kts | 268° |
| 2026-04-24 00:14 | 29.98956 | -95.33678 | 101 ft | 13 kts | 342° |
| 2026-04-24 00:14 | 29.99060 | -95.33688 | 101 ft | 15 kts | 355° |
| 2026-04-24 00:15 | 29.99084 | -95.33753 | 101 ft | 11 kts | 267° |
| 2026-04-24 00:15 | 29.99085 | -95.33862 | 101 ft | 13 kts | 270° |
| 2026-04-24 00:15 | 29.99085 | -95.33966 | 101 ft | 12 kts | 271° |
| 2026-04-24 00:15 | 29.99087 | -95.34069 | 101 ft | 13 kts | 271° |
| 2026-04-24 00:16 | 29.99087 | -95.34180 | 101 ft | 15 kts | 269° |
| 2026-04-24 00:16 | 29.99086 | -95.34325 | 101 ft | 20 kts | 269° |
| 2026-04-24 00:16 | 29.99087 | -95.34511 | 101 ft | 25 kts | 269° |
| 2026-04-24 00:16 | 29.99085 | -95.34727 | 101 ft | 26 kts | 269° |
| 2026-04-24 00:17 | 29.99085 | -95.34935 | 99 ft | 26 kts | 275° |
| 2026-04-24 00:17 | 29.99088 | -95.35143 | 98 ft | 25 kts | 269° |
| 2026-04-24 00:17 | 29.99084 | -95.35342 | 99 ft | 23 kts | 268° |
| 2026-04-24 00:17 | 29.99028 | -95.35477 | 98 ft | 18 kts | 195° |
| 2026-04-24 00:18 | 29.98909 | -95.35510 | 98 ft | 16 kts | 224° |
| 2026-04-24 00:18 | 29.98853 | -95.35622 | 98 ft | 18 kts | 244° |
| 2026-04-24 00:18 | 29.98775 | -95.35747 | 98 ft | 18 kts | 201° |
| 2026-04-24 00:18 | 29.98656 | -95.35708 | 98 ft | 19 kts | 152° |
| 2026-04-24 00:19 | 29.98336 | -95.35509 | 98 ft | 90 kts | 152° |
| 2026-04-24 00:19 | 29.97576 | -95.35036 | 102 ft | 155 kts | 150° |
| 2026-04-24 00:19 | 29.96535 | -95.34506 | 695 ft | 169 kts | 164° |
| 2026-04-24 00:19 | 29.95400 | -95.34186 | 1453 ft | 181 kts | 168° |
| 2026-04-24 00:20 | 29.94099 | -95.34287 | 2067 ft | 202 kts | 202° |
| 2026-04-24 00:20 | 29.93012 | -95.35445 | 2713 ft | 225 kts | 234° |
| 2026-04-24 00:20 | 29.92211 | -95.37036 | 3431 ft | 236 kts | 236° |
| 2026-04-24 00:20 | 29.91350 | -95.38732 | 3911 ft | 255 kts | 243° |
| 2026-04-24 00:21 | 29.91062 | -95.40815 | 4139 ft | 283 kts | 276° |
| 2026-04-24 00:21 | 29.91613 | -95.42942 | 5318 ft | 276 kts | 288° |
| 2026-04-24 00:21 | 29.92297 | -95.45021 | 6259 ft | 277 kts | 288° |
| 2026-04-24 00:21 | 29.92913 | -95.47124 | 7185 ft | 277 kts | 286° |
| 2026-04-24 00:22 | 29.93461 | -95.49245 | 8070 ft | 278 kts | 285° |
| 2026-04-24 00:22 | 29.93976 | -95.51379 | 8897 ft | 281 kts | 284° |
| 2026-04-24 00:22 | 29.94500 | -95.53576 | 9823 ft | 280 kts | 285° |
| 2026-04-24 00:22 | 29.95029 | -95.55785 | 10640 ft | 284 kts | 285° |
| 2026-04-24 00:23 | 29.95550 | -95.57958 | 11460 ft | 286 kts | 286° |
| 2026-04-24 00:23 | 29.96076 | -95.60152 | 12321 ft | 287 kts | 287° |
| 2026-04-24 00:23 | 29.96616 | -95.62402 | 13149 ft | 289 kts | 287° |
| 2026-04-24 00:23 | 29.97151 | -95.64632 | 13940 ft | 293 kts | 287° |
| 2026-04-24 00:24 | 29.97696 | -95.66922 | 14756 ft | 295 kts | 286° |
| 2026-04-24 00:24 | 29.98242 | -95.69222 | 15554 ft | 299 kts | 286° |
| 2026-04-24 00:24 | 29.98801 | -95.71567 | 16351 ft | 301 kts | 286° |
| 2026-04-24 00:24 | 29.99357 | -95.73886 | 17207 ft | 301 kts | 285° |
| 2026-04-24 00:25 | 29.99917 | -95.76229 | 17879 ft | 307 kts | 286° |
| 2026-04-24 00:25 | 30.00477 | -95.78574 | 18658 ft | 307 kts | 286° |
| 2026-04-24 00:25 | 30.01055 | -95.80994 | 19331 ft | 311 kts | 286° |
| 2026-04-24 00:25 | 30.01628 | -95.83398 | 20063 ft | 312 kts | 286° |
| 2026-04-24 00:26 | 30.02207 | -95.85823 | 20757 ft | 314 kts | 286° |
| 2026-04-24 00:26 | 30.02786 | -95.88244 | 21387 ft | 317 kts | 286° |
| 2026-04-24 00:26 | 30.03377 | -95.90720 | 22116 ft | 317 kts | 286° |
| 2026-04-24 00:26 | 30.03965 | -95.93195 | 22700 ft | 320 kts | 286° |
| 2026-04-24 00:27 | 30.04552 | -95.95670 | 23384 ft | 320 kts | 286° |
| 2026-04-24 00:27 | 30.05133 | -95.98128 | 24085 ft | 319 kts | 286° |
| 2026-04-24 00:27 | 30.05727 | -96.00641 | 24613 ft | 322 kts | 286° |
| 2026-04-24 00:27 | 30.06313 | -96.03121 | 25262 ft | 321 kts | 286° |
| 2026-04-24 00:28 | 30.06895 | -96.05594 | 25775 ft | 323 kts | 286° |
| 2026-04-24 00:28 | 30.07433 | -96.08141 | 26334 ft | 324 kts | 283° |
| 2026-04-24 00:28 | 30.07853 | -96.10703 | 26886 ft | 325 kts | 281° |
| 2026-04-24 00:28 | 30.08223 | -96.13278 | 27427 ft | 325 kts | 282° |
| 2026-04-24 00:29 | 30.08589 | -96.15855 | 27916 ft | 326 kts | 282° |
| 2026-04-24 00:29 | 30.08970 | -96.18450 | 28398 ft | 328 kts | 282° |
| 2026-04-24 00:29 | 30.09363 | -96.21060 | 28837 ft | 330 kts | 282° |
| 2026-04-24 00:29 | 30.09757 | -96.23647 | 29353 ft | 329 kts | 282° |
| 2026-04-24 00:30 | 30.10158 | -96.26270 | 29804 ft | 330 kts | 283° |
| 2026-04-24 00:30 | 30.10568 | -96.28933 | 30213 ft | 332 kts | 282° |
| 2026-04-24 00:30 | 30.10978 | -96.31590 | 30538 ft | 337 kts | 283° |
| 2026-04-24 00:30 | 30.11392 | -96.34271 | 30975 ft | 337 kts | 283° |
| 2026-04-24 00:31 | 30.11799 | -96.36937 | 31425 ft | 338 kts | 283° |
| 2026-04-24 00:31 | 30.12208 | -96.39622 | 31682 ft | 343 kts | 283° |
| 2026-04-24 00:31 | 30.12631 | -96.42377 | 32129 ft | 343 kts | 283° |
| 2026-04-24 00:31 | 30.13047 | -96.45106 | 32494 ft | 344 kts | 283° |
| 2026-04-24 00:32 | 30.13461 | -96.47816 | 32852 ft | 346 kts | 284° |
| 2026-04-24 00:32 | 30.13885 | -96.50603 | 33257 ft | 347 kts | 283° |
| 2026-04-24 00:32 | 30.14308 | -96.53400 | 33563 ft | 350 kts | 284° |
| 2026-04-24 00:32 | 30.14723 | -96.56145 | 33884 ft | 352 kts | 283° |
| 2026-04-24 00:33 | 30.15577 | -96.61770 | 33935 ft | 351 kts | 284° |
| 2026-04-24 00:33 | 30.16412 | -96.67326 | 33938 ft | 348 kts | 283° |
| 2026-04-24 00:34 | 30.17242 | -96.72872 | 33939 ft | 349 kts | 283° |
| 2026-04-24 00:34 | 30.18068 | -96.78395 | 33943 ft | 349 kts | 283° |
| 2026-04-24 00:35 | 30.18905 | -96.83935 | 33848 ft | 349 kts | 283° |
| 2026-04-24 00:35 | 30.19728 | -96.89484 | 33848 ft | 349 kts | 283° |
| 2026-04-24 00:36 | 30.20552 | -96.95029 | 33854 ft | 349 kts | 283° |
| 2026-04-24 00:36 | 30.21377 | -97.00579 | 33855 ft | 350 kts | 283° |
| 2026-04-24 00:37 | 30.22201 | -97.06148 | 33847 ft | 350 kts | 283° |
| 2026-04-24 00:37 | 30.23020 | -97.11652 | 33843 ft | 350 kts | 283° |
| 2026-04-24 00:38 | 30.23856 | -97.17213 | 33847 ft | 349 kts | 284° |
| 2026-04-24 00:38 | 30.24678 | -97.22720 | 33836 ft | 348 kts | 283° |
| 2026-04-24 00:39 | 30.25510 | -97.28350 | 33840 ft | 360 kts | 283° |
| 2026-04-24 00:39 | 30.26370 | -97.34162 | 33837 ft | 369 kts | 283° |
| 2026-04-24 00:40 | 30.27217 | -97.39925 | 33832 ft | 363 kts | 283° |
| 2026-04-24 00:40 | 30.28057 | -97.45714 | 33833 ft | 366 kts | 283° |
| 2026-04-24 00:41 | 30.28904 | -97.51514 | 33832 ft | 364 kts | 283° |
| 2026-04-24 00:41 | 30.29749 | -97.57293 | 33831 ft | 363 kts | 283° |
| 2026-04-24 00:42 | 30.30588 | -97.63073 | 33832 ft | 362 kts | 283° |
| 2026-04-24 00:42 | 30.31430 | -97.68806 | 33834 ft | 361 kts | 282° |
| 2026-04-24 00:43 | 30.32295 | -97.74541 | 33838 ft | 362 kts | 284° |
| 2026-04-24 00:43 | 30.33476 | -97.80173 | 33841 ft | 359 kts | 287° |
| 2026-04-24 00:44 | 30.34742 | -97.85769 | 33844 ft | 359 kts | 287° |
| 2026-04-24 00:44 | 30.35937 | -97.91361 | 33853 ft | 359 kts | 285° |
| 2026-04-24 00:45 | 30.37130 | -97.96987 | 33857 ft | 359 kts | 285° |
| 2026-04-24 00:45 | 30.38306 | -98.02574 | 33568 ft | 347 kts | 285° |
| 2026-04-24 00:46 | 30.38863 | -98.05250 | 33288 ft | 339 kts | 286° |
| 2026-04-24 00:46 | 30.39411 | -98.07884 | 33023 ft | 333 kts | 286° |
| 2026-04-24 00:46 | 30.39963 | -98.10515 | 32761 ft | 334 kts | 286° |
| 2026-04-24 00:46 | 30.40509 | -98.13110 | 32502 ft | 335 kts | 285° |
| 2026-04-24 00:47 | 30.41058 | -98.15738 | 32239 ft | 335 kts | 285° |
| 2026-04-24 00:47 | 30.41164 | -98.16251 | 32188 ft | 335 kts | 285° |
| 2026-04-24 00:47 | 30.41443 | -98.17599 | 32053 ft | 334 kts | 286° |
| 2026-04-24 00:48 | 30.41995 | -98.20247 | 31789 ft | 332 kts | 285° |
| 2026-04-24 00:48 | 30.42535 | -98.22835 | 31527 ft | 330 kts | 285° |
| 2026-04-24 00:48 | 30.43076 | -98.25413 | 31269 ft | 330 kts | 285° |
| 2026-04-24 00:48 | 30.43618 | -98.28002 | 31007 ft | 330 kts | 285° |
| 2026-04-24 00:49 | 30.44158 | -98.30587 | 30747 ft | 328 kts | 284° |
| 2026-04-24 00:49 | 30.44694 | -98.33160 | 30487 ft | 329 kts | 284° |
| 2026-04-24 00:49 | 30.45223 | -98.35731 | 30227 ft | 328 kts | 284° |
| 2026-04-24 00:49 | 30.45725 | -98.38306 | 29966 ft | 327 kts | 283° |
| 2026-04-24 00:50 | 30.46202 | -98.40849 | 29710 ft | 325 kts | 283° |
| 2026-04-24 00:50 | 30.46673 | -98.43406 | 29455 ft | 324 kts | 283° |
| 2026-04-24 00:50 | 30.47145 | -98.45963 | 29196 ft | 323 kts | 283° |
| 2026-04-24 00:50 | 30.47620 | -98.48511 | 28948 ft | 324 kts | 284° |
| 2026-04-24 00:51 | 30.48108 | -98.51080 | 28694 ft | 324 kts | 284° |
| 2026-04-24 00:51 | 30.48589 | -98.53610 | 28443 ft | 323 kts | 283° |
| 2026-04-24 00:51 | 30.49065 | -98.56146 | 28195 ft | 323 kts | 283° |
| 2026-04-24 00:51 | 30.49536 | -98.58677 | 27946 ft | 322 kts | 283° |
| 2026-04-24 00:52 | 30.50011 | -98.61220 | 27851 ft | 319 kts | 283° |
| 2026-04-24 00:52 | 30.50486 | -98.63749 | 27850 ft | 327 kts | 283° |
| 2026-04-24 00:52 | 30.50979 | -98.66366 | 27849 ft | 340 kts | 282° |
| 2026-04-24 00:52 | 30.51490 | -98.69099 | 27844 ft | 353 kts | 283° |
| 2026-04-24 00:53 | 30.52025 | -98.71951 | 27839 ft | 367 kts | 283° |
| 2026-04-24 00:53 | 30.52577 | -98.74904 | 27840 ft | 379 kts | 283° |
| 2026-04-24 00:53 | 30.53137 | -98.77906 | 27838 ft | 392 kts | 282° |
| 2026-04-24 00:53 | 30.53719 | -98.81033 | 27840 ft | 399 kts | 282° |
| 2026-04-24 00:54 | 30.54302 | -98.84172 | 27838 ft | 397 kts | 282° |
| 2026-04-24 00:54 | 30.54882 | -98.87302 | 27845 ft | 396 kts | 282° |
| 2026-04-24 00:54 | 30.55459 | -98.90421 | 27845 ft | 397 kts | 282° |
| 2026-04-24 00:54 | 30.56034 | -98.93532 | 27839 ft | 396 kts | 282° |
| 2026-04-24 00:55 | 30.56609 | -98.96657 | 27838 ft | 394 kts | 282° |
| 2026-04-24 00:55 | 30.57185 | -98.99794 | 27839 ft | 396 kts | 282° |
| 2026-04-24 00:55 | 30.57753 | -99.02903 | 27840 ft | 395 kts | 282° |
| 2026-04-24 00:55 | 30.58323 | -99.06014 | 27840 ft | 396 kts | 282° |
| 2026-04-24 00:56 | 30.58901 | -99.09157 | 27844 ft | 396 kts | 283° |
| 2026-04-24 00:56 | 30.59474 | -99.12271 | 27845 ft | 396 kts | 282° |
| 2026-04-24 00:56 | 30.60048 | -99.15398 | 27851 ft | 396 kts | 282° |
| 2026-04-24 00:56 | 30.60624 | -99.18558 | 27852 ft | 396 kts | 282° |
| 2026-04-24 00:57 | 30.61188 | -99.21666 | 27854 ft | 396 kts | 282° |
| 2026-04-24 00:57 | 30.61765 | -99.24813 | 27851 ft | 396 kts | 282° |
| 2026-04-24 00:57 | 30.62909 | -99.31073 | 27860 ft | 396 kts | 282° |
| 2026-04-24 00:58 | 30.63474 | -99.34178 | 27862 ft | 395 kts | 282° |
| 2026-04-24 00:58 | 30.64046 | -99.37332 | 27866 ft | 396 kts | 282° |
| 2026-04-24 00:58 | 30.64613 | -99.40444 | 27864 ft | 397 kts | 282° |
| 2026-04-24 00:58 | 30.65190 | -99.43639 | 27863 ft | 396 kts | 282° |
| 2026-04-24 00:59 | 30.65762 | -99.46806 | 27863 ft | 394 kts | 282° |
| 2026-04-24 00:59 | 30.66314 | -99.49879 | 27863 ft | 394 kts | 282° |
| 2026-04-24 00:59 | 30.66874 | -99.53004 | 27860 ft | 395 kts | 282° |
| 2026-04-24 00:59 | 30.67439 | -99.56155 | 27858 ft | 395 kts | 282° |
| 2026-04-24 01:00 | 30.67998 | -99.59270 | 27861 ft | 395 kts | 282° |
| 2026-04-24 01:00 | 30.68562 | -99.62424 | 27859 ft | 396 kts | 282° |
| 2026-04-24 01:00 | 30.69119 | -99.65552 | 27860 ft | 394 kts | 281° |
| 2026-04-24 01:00 | 30.69672 | -99.68654 | 27862 ft | 395 kts | 281° |
| 2026-04-24 01:01 | 30.70237 | -99.71807 | 27865 ft | 394 kts | 281° |
| 2026-04-24 01:01 | 30.70799 | -99.74952 | 27865 ft | 396 kts | 281° |
| 2026-04-24 01:01 | 30.71354 | -99.78044 | 27865 ft | 395 kts | 281° |
| 2026-04-24 01:01 | 30.71915 | -99.81181 | 27864 ft | 395 kts | 282° |
| 2026-04-24 01:02 | 30.72468 | -99.84288 | 27863 ft | 394 kts | 281° |
| 2026-04-24 01:02 | 30.73025 | -99.87418 | 27866 ft | 395 kts | 282° |
| 2026-04-24 01:02 | 30.73580 | -99.90552 | 27863 ft | 396 kts | 281° |
| 2026-04-24 01:02 | 30.74131 | -99.93675 | 27868 ft | 394 kts | 281° |
| 2026-04-24 01:03 | 30.74686 | -99.96824 | 27871 ft | 395 kts | 281° |
| 2026-04-24 01:03 | 30.75236 | -99.99954 | 27869 ft | 395 kts | 281° |
| 2026-04-24 01:03 | 30.75782 | -100.03065 | 27867 ft | 396 kts | 281° |
| 2026-04-24 01:03 | 30.76334 | -100.06198 | 27861 ft | 394 kts | 281° |
| 2026-04-24 01:04 | 30.76873 | -100.09287 | 27865 ft | 394 kts | 281° |
| 2026-04-24 01:04 | 30.77304 | -100.11768 | 27863 ft | 395 kts | 281° |
| 2026-04-24 01:04 | 30.77427 | -100.12479 | 27864 ft | 396 kts | 281° |
| 2026-04-24 01:04 | 30.77975 | -100.15611 | 27865 ft | 394 kts | 282° |
| 2026-04-24 01:05 | 30.78521 | -100.18725 | 27865 ft | 396 kts | 281° |
| 2026-04-24 01:05 | 30.79064 | -100.21840 | 27866 ft | 394 kts | 282° |
| 2026-04-24 01:05 | 30.79608 | -100.24961 | 27868 ft | 394 kts | 281° |
| 2026-04-24 01:05 | 30.80153 | -100.28102 | 27869 ft | 393 kts | 281° |
| 2026-04-24 01:06 | 30.80689 | -100.31213 | 27873 ft | 395 kts | 281° |
| 2026-04-24 01:06 | 30.80957 | -100.32780 | 27870 ft | 395 kts | 281° |
| 2026-04-24 01:06 | 30.81385 | -100.35260 | 27869 ft | 394 kts | 281° |
| 2026-04-24 01:07 | 30.81926 | -100.38389 | 27869 ft | 393 kts | 281° |
| 2026-04-24 01:07 | 30.82466 | -100.41504 | 27872 ft | 394 kts | 281° |
| 2026-04-24 01:07 | 30.83010 | -100.44654 | 27872 ft | 395 kts | 281° |
| 2026-04-24 01:07 | 30.83552 | -100.47784 | 27871 ft | 396 kts | 281° |
| 2026-04-24 01:08 | 30.84095 | -100.50916 | 27871 ft | 395 kts | 281° |
| 2026-04-24 01:08 | 30.84633 | -100.54036 | 27868 ft | 395 kts | 281° |
| 2026-04-24 01:08 | 30.85176 | -100.57198 | 27873 ft | 395 kts | 281° |
| 2026-04-24 01:08 | 30.85705 | -100.60297 | 27873 ft | 395 kts | 281° |
| 2026-04-24 01:09 | 30.86242 | -100.63437 | 27872 ft | 396 kts | 281° |
| 2026-04-24 01:09 | 30.86778 | -100.66576 | 27874 ft | 395 kts | 280° |
| 2026-04-24 01:09 | 30.87315 | -100.69743 | 27876 ft | 395 kts | 281° |
| 2026-04-24 01:09 | 30.87844 | -100.72871 | 27875 ft | 396 kts | 280° |
| 2026-04-24 01:10 | 30.88376 | -100.76011 | 27874 ft | 395 kts | 281° |
| 2026-04-24 01:10 | 30.88908 | -100.79145 | 27876 ft | 395 kts | 281° |
| 2026-04-24 01:10 | 30.89449 | -100.82327 | 27875 ft | 397 kts | 280° |
| 2026-04-24 01:10 | 30.89979 | -100.85462 | 27870 ft | 394 kts | 280° |
| 2026-04-24 01:11 | 30.90507 | -100.88595 | 27865 ft | 396 kts | 280° |
| 2026-04-24 01:11 | 30.91041 | -100.91758 | 27860 ft | 396 kts | 281° |
| 2026-04-24 01:11 | 30.91568 | -100.94878 | 27858 ft | 394 kts | 280° |
| 2026-04-24 01:11 | 30.92094 | -100.98023 | 27862 ft | 395 kts | 280° |
| 2026-04-24 01:12 | 30.92623 | -101.01190 | 27870 ft | 396 kts | 280° |
| 2026-04-24 01:12 | 30.93143 | -101.04315 | 27876 ft | 395 kts | 280° |
| 2026-04-24 01:12 | 30.93668 | -101.07471 | 27878 ft | 394 kts | 280° |
| 2026-04-24 01:12 | 30.94179 | -101.10571 | 27880 ft | 394 kts | 280° |
| 2026-04-24 01:13 | 30.94701 | -101.13735 | 27883 ft | 393 kts | 279° |
| 2026-04-24 01:13 | 30.95218 | -101.16864 | 27881 ft | 395 kts | 281° |
| 2026-04-24 01:13 | 30.95735 | -101.19978 | 27886 ft | 396 kts | 279° |
| 2026-04-24 01:13 | 30.96260 | -101.23144 | 27890 ft | 395 kts | 280° |
| 2026-04-24 01:14 | 30.96785 | -101.26289 | 27887 ft | 395 kts | 280° |
| 2026-04-24 01:14 | 30.97305 | -101.29415 | 27888 ft | 393 kts | 280° |
| 2026-04-24 01:14 | 30.97837 | -101.32626 | 27888 ft | 394 kts | 280° |
| 2026-04-24 01:14 | 30.98351 | -101.35744 | 27889 ft | 394 kts | 280° |
| 2026-04-24 01:15 | 30.98873 | -101.38918 | 27889 ft | 395 kts | 280° |
| 2026-04-24 01:15 | 30.99382 | -101.42023 | 27892 ft | 394 kts | 280° |
| 2026-04-24 01:15 | 30.99908 | -101.45216 | 27889 ft | 392 kts | 280° |
| 2026-04-24 01:15 | 31.00424 | -101.48345 | 27887 ft | 393 kts | 280° |
| 2026-04-24 01:16 | 31.00933 | -101.51442 | 27888 ft | 393 kts | 280° |
| 2026-04-24 01:16 | 31.01446 | -101.54572 | 27884 ft | 392 kts | 279° |
| 2026-04-24 01:16 | 31.01962 | -101.57728 | 27882 ft | 391 kts | 280° |
| 2026-04-24 01:16 | 31.02476 | -101.60877 | 27885 ft | 393 kts | 280° |
| 2026-04-24 01:17 | 31.02982 | -101.63984 | 27887 ft | 391 kts | 280° |
| 2026-04-24 01:17 | 31.03491 | -101.67125 | 27885 ft | 388 kts | 279° |
| 2026-04-24 01:17 | 31.03995 | -101.70266 | 27886 ft | 392 kts | 279° |
| 2026-04-24 01:17 | 31.04499 | -101.73366 | 27888 ft | 391 kts | 279° |
| 2026-04-24 01:18 | 31.05000 | -101.76450 | 27897 ft | 389 kts | 279° |
| 2026-04-24 01:18 | 31.05504 | -101.79562 | 27888 ft | 390 kts | 279° |
| 2026-04-24 01:18 | 31.06015 | -101.82708 | 27879 ft | 388 kts | 279° |
| 2026-04-24 01:18 | 31.06511 | -101.85807 | 27881 ft | 389 kts | 279° |
| 2026-04-24 01:19 | 31.07004 | -101.88897 | 27882 ft | 387 kts | 279° |
| 2026-04-24 01:19 | 31.07493 | -101.91981 | 27877 ft | 389 kts | 279° |
| 2026-04-24 01:19 | 31.07986 | -101.95052 | 27868 ft | 386 kts | 279° |
| 2026-04-24 01:19 | 31.08482 | -101.98128 | 27868 ft | 387 kts | 279° |
| 2026-04-24 01:20 | 31.08978 | -102.01220 | 27867 ft | 384 kts | 279° |
| 2026-04-24 01:20 | 31.09461 | -102.04233 | 27862 ft | 367 kts | 279° |
| 2026-04-24 01:20 | 31.09924 | -102.07119 | 27866 ft | 355 kts | 279° |
| 2026-04-24 01:20 | 31.10375 | -102.09972 | 27869 ft | 357 kts | 279° |
| 2026-04-24 01:21 | 31.10832 | -102.12859 | 27873 ft | 361 kts | 279° |
| 2026-04-24 01:21 | 31.11291 | -102.15734 | 27871 ft | 360 kts | 279° |
| 2026-04-24 01:21 | 31.11739 | -102.18588 | 27872 ft | 358 kts | 279° |
| 2026-04-24 01:21 | 31.12184 | -102.21443 | 27875 ft | 360 kts | 278° |
| 2026-04-24 01:22 | 31.12641 | -102.24335 | 27876 ft | 359 kts | 278° |
| 2026-04-24 01:22 | 31.13083 | -102.27182 | 27879 ft | 360 kts | 279° |
| 2026-04-24 01:22 | 31.13528 | -102.30034 | 27878 ft | 359 kts | 279° |
| 2026-04-24 01:22 | 31.13982 | -102.32919 | 27874 ft | 358 kts | 279° |
| 2026-04-24 01:23 | 31.14433 | -102.35761 | 27875 ft | 360 kts | 279° |
| 2026-04-24 01:23 | 31.14898 | -102.38656 | 27875 ft | 360 kts | 279° |
| 2026-04-24 01:23 | 31.15206 | -102.40552 | 27874 ft | 360 kts | 279° |
| 2026-04-24 01:23 | 31.15801 | -102.44362 | 27870 ft | 359 kts | 279° |
| 2026-04-24 01:24 | 31.16246 | -102.47261 | 27871 ft | 360 kts | 279° |
| 2026-04-24 01:24 | 31.16687 | -102.50120 | 27861 ft | 357 kts | 279° |
| 2026-04-24 01:24 | 31.16978 | -102.52001 | 27865 ft | 356 kts | 279° |
| 2026-04-24 01:24 | 31.17422 | -102.54881 | 27866 ft | 360 kts | 278° |
| 2026-04-24 01:25 | 31.18000 | -102.58675 | 27866 ft | 358 kts | 278° |
| 2026-04-24 01:25 | 31.18291 | -102.60599 | 27868 ft | 357 kts | 279° |
| 2026-04-24 01:25 | 31.18869 | -102.64403 | 27864 ft | 359 kts | 279° |
| 2026-04-24 01:25 | 31.19312 | -102.67294 | 27865 ft | 358 kts | 278° |
| 2026-04-24 01:26 | 31.19602 | -102.69169 | 27867 ft | 358 kts | 278° |
| 2026-04-24 01:26 | 31.20193 | -102.72976 | 27871 ft | 359 kts | 278° |
| 2026-04-24 01:26 | 31.20489 | -102.74895 | 27869 ft | 359 kts | 278° |
| 2026-04-24 01:26 | 31.21074 | -102.78735 | 27878 ft | 357 kts | 278° |
| 2026-04-24 01:27 | 31.21505 | -102.81556 | 27880 ft | 357 kts | 278° |
| 2026-04-24 01:27 | 31.21937 | -102.84397 | 27885 ft | 357 kts | 278° |
| 2026-04-24 01:27 | 31.22379 | -102.87310 | 27890 ft | 359 kts | 278° |
| 2026-04-24 01:27 | 31.22812 | -102.90180 | 27887 ft | 358 kts | 278° |
| 2026-04-24 01:28 | 31.23244 | -102.93020 | 27889 ft | 358 kts | 278° |
| 2026-04-24 01:28 | 31.23681 | -102.95889 | 27895 ft | 358 kts | 278° |
| 2026-04-24 01:28 | 31.23974 | -102.97823 | 27887 ft | 358 kts | 278° |
| 2026-04-24 01:28 | 31.24406 | -103.00668 | 27895 ft | 358 kts | 278° |
| 2026-04-24 01:29 | 31.24823 | -103.03543 | 27895 ft | 358 kts | 278° |
| 2026-04-24 01:29 | 31.25247 | -103.06390 | 27893 ft | 359 kts | 278° |
| 2026-04-24 01:29 | 31.25691 | -103.09309 | 27902 ft | 359 kts | 278° |
| 2026-04-24 01:29 | 31.26278 | -103.13114 | 27904 ft | 359 kts | 278° |
| 2026-04-24 01:30 | 31.26714 | -103.15989 | 27906 ft | 359 kts | 278° |
| 2026-04-24 01:30 | 31.27002 | -103.17907 | 27902 ft | 359 kts | 278° |
| 2026-04-24 01:30 | 31.27432 | -103.20778 | 27903 ft | 359 kts | 278° |
| 2026-04-24 01:30 | 31.27865 | -103.23697 | 27910 ft | 361 kts | 278° |
| 2026-04-24 01:31 | 31.28430 | -103.27510 | 27908 ft | 360 kts | 278° |
| 2026-04-24 01:31 | 31.28861 | -103.30404 | 27910 ft | 358 kts | 278° |
| 2026-04-24 01:31 | 31.29151 | -103.32340 | 27910 ft | 360 kts | 278° |
| 2026-04-24 01:31 | 31.29721 | -103.36181 | 27901 ft | 361 kts | 278° |
| 2026-04-24 01:32 | 31.30149 | -103.39077 | 27892 ft | 360 kts | 278° |
| 2026-04-24 01:32 | 31.30430 | -103.40986 | 27888 ft | 360 kts | 278° |
| 2026-04-24 01:32 | 31.30857 | -103.43883 | 27891 ft | 361 kts | 278° |
| 2026-04-24 01:32 | 31.31430 | -103.47764 | 27888 ft | 361 kts | 278° |
| 2026-04-24 01:33 | 31.31715 | -103.49679 | 27886 ft | 359 kts | 278° |
| 2026-04-24 01:33 | 31.32285 | -103.53508 | 27888 ft | 360 kts | 278° |
| 2026-04-24 01:33 | 31.32716 | -103.56405 | 27896 ft | 361 kts | 278° |
| 2026-04-24 01:33 | 31.33137 | -103.59276 | 27903 ft | 362 kts | 278° |
| 2026-04-24 01:34 | 31.33552 | -103.62150 | 27896 ft | 362 kts | 278° |
| 2026-04-24 01:34 | 31.33838 | -103.64111 | 27904 ft | 362 kts | 278° |
| 2026-04-24 01:34 | 31.34260 | -103.67012 | 27904 ft | 360 kts | 277° |
| 2026-04-24 01:34 | 31.34818 | -103.70871 | 27917 ft | 362 kts | 278° |
| 2026-04-24 01:35 | 31.35232 | -103.73733 | 27929 ft | 360 kts | 277° |
| 2026-04-24 01:35 | 31.35650 | -103.76619 | 27935 ft | 360 kts | 278° |
| 2026-04-24 01:35 | 31.35930 | -103.78552 | 27926 ft | 361 kts | 277° |
| 2026-04-24 01:35 | 31.36481 | -103.82402 | 27927 ft | 361 kts | 277° |
| 2026-04-24 01:36 | 31.36892 | -103.85279 | 27947 ft | 360 kts | 278° |
| 2026-04-24 01:36 | 31.37168 | -103.87219 | 27958 ft | 361 kts | 277° |
| 2026-04-24 01:36 | 31.37716 | -103.91049 | 27957 ft | 359 kts | 278° |
| 2026-04-24 01:36 | 31.37997 | -103.92987 | 27956 ft | 359 kts | 277° |
| 2026-04-24 01:37 | 31.38411 | -103.95847 | 27959 ft | 361 kts | 277° |
| 2026-04-24 01:37 | 31.38830 | -103.98757 | 27952 ft | 363 kts | 277° |
| 2026-04-24 01:37 | 31.39243 | -104.01627 | 27946 ft | 360 kts | 277° |
| 2026-04-24 01:37 | 31.39795 | -104.05503 | 27954 ft | 362 kts | 277° |
| 2026-04-24 01:38 | 31.40207 | -104.08401 | 27958 ft | 361 kts | 277° |
| 2026-04-24 01:38 | 31.40479 | -104.10324 | 27965 ft | 359 kts | 277° |
| 2026-04-24 01:38 | 31.40889 | -104.13193 | 27973 ft | 359 kts | 278° |
| 2026-04-24 01:38 | 31.41307 | -104.16083 | 27970 ft | 360 kts | 278° |
| 2026-04-24 01:39 | 31.41851 | -104.19932 | 27987 ft | 361 kts | 277° |
| 2026-04-24 01:39 | 31.42124 | -104.21886 | 27988 ft | 361 kts | 278° |
| 2026-04-24 01:39 | 31.42525 | -104.24779 | 27989 ft | 360 kts | 277° |
| 2026-04-24 01:39 | 31.43065 | -104.28641 | 27987 ft | 361 kts | 277° |
| 2026-04-24 01:40 | 31.43340 | -104.30592 | 27985 ft | 362 kts | 277° |
| 2026-04-24 01:40 | 31.43745 | -104.33475 | 27991 ft | 360 kts | 277° |
| 2026-04-24 01:40 | 31.44151 | -104.36362 | 28013 ft | 357 kts | 277° |
| 2026-04-24 01:41 | 31.45088 | -104.43112 | 28020 ft | 361 kts | 277° |
| 2026-04-24 01:41 | 31.45689 | -104.47952 | 28033 ft | 358 kts | 275° |
| 2026-04-24 01:42 | 31.46277 | -104.53736 | 28029 ft | 355 kts | 275° |
| 2026-04-24 01:42 | 31.46870 | -104.59482 | 28030 ft | 357 kts | 275° |
| 2026-04-24 01:43 | 31.47559 | -104.66268 | 28019 ft | 357 kts | 275° |
| 2026-04-24 01:43 | 31.48186 | -104.72132 | 28013 ft | 356 kts | 275° |
| 2026-04-24 01:44 | 31.48661 | -104.76898 | 28017 ft | 356 kts | 275° |
| 2026-04-24 01:44 | 31.49349 | -104.83621 | 28039 ft | 354 kts | 275° |
| 2026-04-24 01:45 | 31.49842 | -104.88402 | 28051 ft | 353 kts | 275° |
| 2026-04-24 01:45 | 31.50431 | -104.94140 | 28071 ft | 356 kts | 275° |
| 2026-04-24 01:46 | 31.51026 | -104.99868 | 28080 ft | 355 kts | 276° |
| 2026-04-24 01:46 | 31.51640 | -105.05630 | 28077 ft | 351 kts | 275° |
| 2026-04-24 01:46 | 31.51910 | -105.08403 | 27900 ft | 341 kts | 274° |
| 2026-04-24 01:47 | 31.52247 | -105.12086 | 27321 ft | 344 kts | 275° |
| 2026-04-24 01:47 | 31.52428 | -105.13940 | 26890 ft | 345 kts | 275° |
| 2026-04-24 01:47 | 31.52712 | -105.16755 | 26142 ft | 350 kts | 275° |
| 2026-04-24 01:47 | 31.53101 | -105.20538 | 25349 ft | 351 kts | 275° |
| 2026-04-24 01:48 | 31.53391 | -105.23380 | 24751 ft | 353 kts | 274° |
| 2026-04-24 01:48 | 31.53583 | -105.25288 | 24319 ft | 353 kts | 274° |
| 2026-04-24 01:48 | 31.53874 | -105.28154 | 23671 ft | 352 kts | 275° |
| 2026-04-24 01:48 | 31.54155 | -105.30984 | 23042 ft | 351 kts | 275° |
| 2026-04-24 01:49 | 31.54436 | -105.33836 | 22407 ft | 350 kts | 275° |
| 2026-04-24 01:49 | 31.54712 | -105.36661 | 21791 ft | 349 kts | 275° |
| 2026-04-24 01:49 | 31.54985 | -105.39452 | 21182 ft | 348 kts | 275° |
| 2026-04-24 01:49 | 31.55354 | -105.43218 | 20344 ft | 348 kts | 275° |
| 2026-04-24 01:50 | 31.55538 | -105.45092 | 19927 ft | 347 kts | 275° |
| 2026-04-24 01:50 | 31.55812 | -105.47900 | 19299 ft | 347 kts | 275° |
| 2026-04-24 01:50 | 31.56082 | -105.50692 | 18691 ft | 346 kts | 275° |
| 2026-04-24 01:50 | 31.56444 | -105.54402 | 17868 ft | 345 kts | 275° |
| 2026-04-24 01:51 | 31.56716 | -105.57196 | 17246 ft | 344 kts | 275° |
| 2026-04-24 01:51 | 31.56894 | -105.59035 | 16832 ft | 344 kts | 275° |
| 2026-04-24 01:51 | 31.57168 | -105.61861 | 16199 ft | 343 kts | 275° |
| 2026-04-24 01:51 | 31.57434 | -105.64616 | 15593 ft | 342 kts | 275° |
| 2026-04-24 01:52 | 31.57781 | -105.68269 | 14768 ft | 341 kts | 275° |
| 2026-04-24 01:52 | 31.57957 | -105.70136 | 14354 ft | 340 kts | 275° |
| 2026-04-24 01:52 | 31.58308 | -105.73762 | 13551 ft | 338 kts | 275° |
| 2026-04-24 01:52 | 31.58485 | -105.75586 | 13145 ft | 338 kts | 275° |
| 2026-04-24 01:53 | 31.58767 | -105.78335 | 12533 ft | 337 kts | 277° |
| 2026-04-24 01:53 | 31.59341 | -105.80993 | 12059 ft | 333 kts | 289° |
| 2026-04-24 01:53 | 31.60365 | -105.83441 | 11439 ft | 335 kts | 297° |
| 2026-04-24 01:53 | 31.61994 | -105.86510 | 10775 ft | 330 kts | 301° |
| 2026-04-24 01:54 | 31.62837 | -105.88000 | 10502 ft | 326 kts | 301° |
| 2026-04-24 01:54 | 31.64099 | -105.90168 | 10102 ft | 320 kts | 302° |
| 2026-04-24 01:54 | 31.65347 | -105.92293 | 9662 ft | 310 kts | 302° |
| 2026-04-24 01:54 | 31.66551 | -105.94339 | 9237 ft | 295 kts | 302° |
| 2026-04-24 01:55 | 31.67677 | -105.96297 | 8813 ft | 285 kts | 301° |
| 2026-04-24 01:55 | 31.69067 | -105.98847 | 8241 ft | 269 kts | 300° |
| 2026-04-24 01:55 | 31.69715 | -106.00057 | 7960 ft | 262 kts | 300° |
| 2026-04-24 01:55 | 31.70971 | -106.02419 | 7394 ft | 251 kts | 300° |
| 2026-04-24 01:56 | 31.71592 | -106.03597 | 7179 ft | 249 kts | 300° |
| 2026-04-24 01:56 | 31.72496 | -106.05323 | 7119 ft | 248 kts | 301° |
| 2026-04-24 01:56 | 31.73413 | -106.07083 | 7106 ft | 250 kts | 300° |
| 2026-04-24 01:56 | 31.74320 | -106.08826 | 7104 ft | 248 kts | 300° |
| 2026-04-24 01:57 | 31.75223 | -106.10559 | 7107 ft | 252 kts | 300° |
| 2026-04-24 01:57 | 31.76136 | -106.12308 | 7130 ft | 248 kts | 300° |
| 2026-04-24 01:57 | 31.77050 | -106.14062 | 7096 ft | 248 kts | 301° |
| 2026-04-24 01:57 | 31.78176 | -106.16415 | 7036 ft | 249 kts | 296° |
| 2026-04-24 01:58 | 31.78684 | -106.17638 | 6851 ft | 251 kts | 293° |
| 2026-04-24 01:58 | 31.79149 | -106.19587 | 6487 ft | 237 kts | 280° |
| 2026-04-24 01:58 | 31.79315 | -106.21448 | 6088 ft | 219 kts | 275° |
| 2026-04-24 01:58 | 31.79352 | -106.23152 | 5577 ft | 200 kts | 273° |
| 2026-04-24 01:59 | 31.79382 | -106.24734 | 5213 ft | 185 kts | 276° |
| 2026-04-24 01:59 | 31.79485 | -106.26196 | 4999 ft | 168 kts | 278° |
| 2026-04-24 01:59 | 31.79589 | -106.27468 | 4911 ft | 148 kts | 278° |
| 2026-04-24 01:59 | 31.79666 | -106.28650 | 4738 ft | 145 kts | 277° |
| 2026-04-24 02:00 | 31.79732 | -106.29831 | 4618 ft | 143 kts | 277° |
| 2026-04-24 02:00 | 31.79817 | -106.31392 | 4548 ft | 144 kts | 276° |
| 2026-04-24 02:00 | 31.79857 | -106.32185 | 4517 ft | 143 kts | 276° |
| 2026-04-24 02:00 | 31.79929 | -106.33373 | 4419 ft | 144 kts | 277° |
| 2026-04-24 02:01 | 31.79995 | -106.34552 | 4201 ft | 145 kts | 276° |
| 2026-04-24 02:01 | 31.80046 | -106.35710 | 4036 ft | 138 kts | 276° |
| 2026-04-24 02:01 | 31.80124 | -106.37212 | 3951 ft | 129 kts | 280° |
| 2026-04-24 02:01 | 31.80163 | -106.37781 | 3944 ft | 88 kts | 275° |
| 2026-04-24 02:02 | 31.80178 | -106.38412 | 3936 ft | 36 kts | 266° |
| 2026-04-24 02:02 | 31.80130 | -106.38496 | 3936 ft | 14 kts | 197° |
| 2026-04-24 02:02 | 31.80049 | -106.38506 | 3936 ft | 0 kts | 184° |
| 2026-04-24 02:02 | 31.80038 | -106.38506 | 3936 ft | 2 kts | 185° |
| 2026-04-24 02:03 | 31.79990 | -106.38676 | 3933 ft | 19 kts | 272° |
| 2026-04-24 02:03 | 31.79993 | -106.38843 | 3930 ft | 20 kts | 270° |
| 2026-04-24 02:03 | 31.79982 | -106.39078 | 3927 ft | 21 kts | 263° |
| 2026-04-24 02:04 | 31.79964 | -106.39181 | 3927 ft | 16 kts | 256° |
| 2026-04-24 02:04 | 31.79937 | -106.39285 | 3927 ft | 5 kts | 274° |
| 2026-04-24 02:04 | 31.79961 | -106.39304 | 3927 ft | 3 kts | 0° |
| 2026-04-24 02:04 | 31.79973 | -106.39303 | 3927 ft | 0 kts | 7° |